SVMG/PMV METAR and TAF weather

Enter ICAO airport designator
Station Type Date Time Source
SVMG METAR 2019/10/23 02:00 UTC NOAA

SVMG 230200Z /////KT 9999 SCT010 27/25 Q1012 NOSIG


Station Type Date Time Source
SVMG Decoded METAR 2019/10/23 02:00 UTC NOAA

Margarita / Del Carib, Venezuela (SVMG) 10-55N 063-59W
Oct 22, 2019 - 10:00 PM EDT / 2019.10.23 0200 UTC
Visibility: greater than 7 mile(s):0
Sky conditions: partly cloudy
Temperature: 80 F (27 C)
Dew Point: 77 F (25 C)
Relative Humidity: 88%
Pressure (altimeter): 29.88 in. Hg (1012 hPa)
ob: SVMG 230200Z /////KT 9999 SCT010 27/25 Q1012 NOSIG
cycle: 2

Station Type Date Time Source
SVMG TAF 2019/10/22 18:06 UTC NOAA

TAF SVMG 221600Z 2218/2318 09010KT 9999 FEW010 TX33/18Z TN24/08Z
BECMG 2214/2018 09013KT SCT010 SCT0980

Example: see airport list